sensor_id;sensor_type;location;lat;lon;timestamp;P1;durP1;ratioP1;P2;durP2;ratioP2
12871;SDS011;6504;53.766;9.626;2022-08-04T00:01:03;13.20;;;10.10;;
12871;SDS011;6504;53.766;9.626;2022-08-04T00:03:42;13.90;;;11.13;;
12871;SDS011;6504;53.766;9.626;2022-08-04T00:06:16;15.03;;;11.07;;
12871;SDS011;6504;53.766;9.626;2022-08-04T00:08:55;11.93;;;10.23;;
12871;SDS011;6504;53.766;9.626;2022-08-04T00:11:25;12.07;;;9.40;;
12871;SDS011;6504;53.766;9.626;2022-08-04T00:13:59;10.67;;;8.83;;
12871;SDS011;6504;53.766;9.626;2022-08-04T00:16:34;14.13;;;9.07;;
12871;SDS011;6504;53.766;9.626;2022-08-04T00:19:07;13.17;;;9.67;;
12871;SDS011;6504;53.766;9.626;2022-08-04T00:21:38;11.73;;;8.30;;
12871;SDS011;6504;53.766;9.626;2022-08-04T00:24:12;9.27;;;8.37;;
12871;SDS011;6504;53.766;9.626;2022-08-04T00:26:42;10.97;;;8.10;;
12871;SDS011;6504;53.766;9.626;2022-08-04T00:29:10;12.17;;;7.97;;
12871;SDS011;6504;53.766;9.626;2022-08-04T00:31:41;7.73;;;7.00;;
12871;SDS011;6504;53.766;9.626;2022-08-04T00:34:25;7.93;;;7.13;;
12871;SDS011;6504;53.766;9.626;2022-08-04T00:36:54;11.90;;;8.77;;
12871;SDS011;6504;53.766;9.626;2022-08-04T00:39:25;9.53;;;8.27;;
12871;SDS011;6504;53.766;9.626;2022-08-04T00:44:52;14.60;;;9.73;;
12871;SDS011;6504;53.766;9.626;2022-08-04T00:47:38;8.60;;;7.33;;
12871;SDS011;6504;53.766;9.626;2022-08-04T00:50:23;12.63;;;8.13;;
12871;SDS011;6504;53.766;9.626;2022-08-04T00:53:06;9.83;;;7.67;;
12871;SDS011;6504;53.766;9.626;2022-08-04T00:58:46;10.53;;;8.40;;
12871;SDS011;6504;53.766;9.626;2022-08-04T01:01:33;11.00;;;9.10;;
12871;SDS011;6504;53.766;9.626;2022-08-04T01:04:20;11.73;;;8.43;;
12871;SDS011;6504;53.766;9.626;2022-08-04T01:07:00;11.63;;;9.07;;
12871;SDS011;6504;53.766;9.626;2022-08-04T01:09:47;11.40;;;8.63;;
12871;SDS011;6504;53.766;9.626;2022-08-04T01:12:32;11.03;;;7.90;;
12871;SDS011;6504;53.766;9.626;2022-08-04T01:15:17;11.90;;;8.53;;
12871;SDS011;6504;53.766;9.626;2022-08-04T01:17:58;12.17;;;8.07;;
12871;SDS011;6504;53.766;9.626;2022-08-04T01:20:38;8.90;;;7.70;;
12871;SDS011;6504;53.766;9.626;2022-08-04T01:23:42;10.83;;;8.27;;
12871;SDS011;6504;53.766;9.626;2022-08-04T01:26:46;9.17;;;7.23;;
12871;SDS011;6504;53.766;9.626;2022-08-04T01:29:27;9.90;;;7.93;;
12871;SDS011;6504;53.766;9.626;2022-08-04T01:32:14;11.33;;;7.87;;
12871;SDS011;6504;53.766;9.626;2022-08-04T01:34:54;8.77;;;7.50;;
12871;SDS011;6504;53.766;9.626;2022-08-04T01:37:45;8.97;;;6.97;;
12871;SDS011;6504;53.766;9.626;2022-08-04T01:40:23;10.20;;;7.77;;
12871;SDS011;6504;53.766;9.626;2022-08-04T01:42:54;8.00;;;6.97;;
12871;SDS011;6504;53.766;9.626;2022-08-04T01:45:26;8.67;;;7.03;;
12871;SDS011;6504;53.766;9.626;2022-08-04T01:47:56;9.27;;;6.63;;
12871;SDS011;6504;53.766;9.626;2022-08-04T01:50:24;8.87;;;6.87;;
12871;SDS011;6504;53.766;9.626;2022-08-04T01:52:53;10.10;;;6.60;;
12871;SDS011;6504;53.766;9.626;2022-08-04T01:55:27;8.13;;;6.40;;
12871;SDS011;6504;53.766;9.626;2022-08-04T01:58:17;9.03;;;6.70;;
12871;SDS011;6504;53.766;9.626;2022-08-04T02:00:49;7.67;;;6.53;;
12871;SDS011;6504;53.766;9.626;2022-08-04T02:03:26;7.63;;;5.80;;
12871;SDS011;6504;53.766;9.626;2022-08-04T02:06:17;7.43;;;5.90;;
12871;SDS011;6504;53.766;9.626;2022-08-04T02:09:00;8.07;;;5.33;;
12871;SDS011;6504;53.766;9.626;2022-08-04T02:11:36;6.37;;;5.40;;
12871;SDS011;6504;53.766;9.626;2022-08-04T02:14:10;7.40;;;5.03;;
12871;SDS011;6504;53.766;9.626;2022-08-04T02:17:10;8.40;;;5.10;;
12871;SDS011;6504;53.766;9.626;2022-08-04T02:19:51;8.23;;;5.40;;
12871;SDS011;6504;53.766;9.626;2022-08-04T02:22:27;7.67;;;5.07;;
12871;SDS011;6504;53.766;9.626;2022-08-04T02:25:04;7.67;;;5.30;;
12871;SDS011;6504;53.766;9.626;2022-08-04T02:30:27;4.43;;;3.70;;
12871;SDS011;6504;53.766;9.626;2022-08-04T02:33:03;6.00;;;4.83;;
12871;SDS011;6504;53.766;9.626;2022-08-04T02:35:34;6.37;;;4.30;;
12871;SDS011;6504;53.766;9.626;2022-08-04T02:38:11;6.87;;;4.13;;
12871;SDS011;6504;53.766;9.626;2022-08-04T02:40:51;4.93;;;4.10;;
12871;SDS011;6504;53.766;9.626;2022-08-04T02:43:25;5.27;;;4.30;;
12871;SDS011;6504;53.766;9.626;2022-08-04T02:46:16;6.57;;;3.67;;
12871;SDS011;6504;53.766;9.626;2022-08-04T02:48:49;6.13;;;3.73;;
12871;SDS011;6504;53.766;9.626;2022-08-04T02:51:21;5.17;;;4.03;;
12871;SDS011;6504;53.766;9.626;2022-08-04T02:53:55;5.57;;;3.80;;
12871;SDS011;6504;53.766;9.626;2022-08-04T02:56:24;7.47;;;4.13;;
12871;SDS011;6504;53.766;9.626;2022-08-04T02:58:57;7.53;;;4.40;;
12871;SDS011;6504;53.766;9.626;2022-08-04T03:01:26;5.40;;;3.80;;
12871;SDS011;6504;53.766;9.626;2022-08-04T03:04:03;8.10;;;4.70;;
12871;SDS011;6504;53.766;9.626;2022-08-04T03:07:22;6.90;;;4.47;;
12871;SDS011;6504;53.766;9.626;2022-08-04T03:13:27;5.10;;;4.10;;
12871;SDS011;6504;53.766;9.626;2022-08-04T03:19:19;5.87;;;4.33;;
12871;SDS011;6504;53.766;9.626;2022-08-04T03:22:17;5.97;;;3.70;;
12871;SDS011;6504;53.766;9.626;2022-08-04T03:25:34;5.43;;;3.93;;
12871;SDS011;6504;53.766;9.626;2022-08-04T03:28:45;4.70;;;3.87;;
12871;SDS011;6504;53.766;9.626;2022-08-04T03:32:20;6.60;;;4.10;;
12871;SDS011;6504;53.766;9.626;2022-08-04T03:35:19;5.43;;;3.73;;
12871;SDS011;6504;53.766;9.626;2022-08-04T03:38:16;3.93;;;3.40;;
12871;SDS011;6504;53.766;9.626;2022-08-04T03:41:15;5.57;;;4.17;;
12871;SDS011;6504;53.766;9.626;2022-08-04T03:47:55;6.90;;;4.30;;
12871;SDS011;6504;53.766;9.626;2022-08-04T03:50:50;6.20;;;3.67;;
12871;SDS011;6504;53.766;9.626;2022-08-04T03:54:10;6.27;;;3.77;;
12871;SDS011;6504;53.766;9.626;2022-08-04T03:57:10;7.83;;;3.87;;
12871;SDS011;6504;53.766;9.626;2022-08-04T04:00:09;4.27;;;3.47;;
12871;SDS011;6504;53.766;9.626;2022-08-04T04:09:02;4.97;;;3.77;;
12871;SDS011;6504;53.766;9.626;2022-08-04T04:12:06;5.37;;;4.07;;
12871;SDS011;6504;53.766;9.626;2022-08-04T04:20:55;5.77;;;3.73;;
12871;SDS011;6504;53.766;9.626;2022-08-04T04:23:31;5.77;;;3.30;;
12871;SDS011;6504;53.766;9.626;2022-08-04T04:26:30;7.33;;;3.97;;
12871;SDS011;6504;53.766;9.626;2022-08-04T04:32:39;5.87;;;3.43;;
12871;SDS011;6504;53.766;9.626;2022-08-04T04:38:37;5.47;;;3.40;;
12871;SDS011;6504;53.766;9.626;2022-08-04T04:47:32;7.57;;;3.40;;
12871;SDS011;6504;53.766;9.626;2022-08-04T04:50:31;6.30;;;3.13;;
12871;SDS011;6504;53.766;9.626;2022-08-04T04:53:11;5.53;;;3.20;;
12871;SDS011;6504;53.766;9.626;2022-08-04T04:55:52;7.90;;;3.60;;
12871;SDS011;6504;53.766;9.626;2022-08-04T04:58:27;5.40;;;3.00;;
12871;SDS011;6504;53.766;9.626;2022-08-04T05:01:10;8.27;;;3.90;;
12871;SDS011;6504;53.766;9.626;2022-08-04T05:07:19;5.60;;;3.33;;
12871;SDS011;6504;53.766;9.626;2022-08-04T05:10:02;7.03;;;3.10;;
12871;SDS011;6504;53.766;9.626;2022-08-04T05:12:46;6.20;;;3.00;;
12871;SDS011;6504;53.766;9.626;2022-08-04T05:15:45;5.30;;;3.30;;
12871;SDS011;6504;53.766;9.626;2022-08-04T05:18:18;8.20;;;3.57;;
12871;SDS011;6504;53.766;9.626;2022-08-04T05:20:55;6.13;;;3.23;;
12871;SDS011;6504;53.766;9.626;2022-08-04T05:23:40;6.73;;;3.30;;
12871;SDS011;6504;53.766;9.626;2022-08-04T05:26:20;5.20;;;3.00;;
12871;SDS011;6504;53.766;9.626;2022-08-04T05:28:55;5.27;;;3.00;;
12871;SDS011;6504;53.766;9.626;2022-08-04T05:31:27;3.77;;;2.80;;
12871;SDS011;6504;53.766;9.626;2022-08-04T05:34:02;5.57;;;3.17;;
12871;SDS011;6504;53.766;9.626;2022-08-04T05:39:20;6.03;;;3.10;;
12871;SDS011;6504;53.766;9.626;2022-08-04T05:41:50;6.77;;;3.40;;
12871;SDS011;6504;53.766;9.626;2022-08-04T05:44:25;5.30;;;3.23;;
12871;SDS011;6504;53.766;9.626;2022-08-04T05:46:59;4.00;;;2.90;;
12871;SDS011;6504;53.766;9.626;2022-08-04T05:49:29;5.87;;;2.83;;
12871;SDS011;6504;53.766;9.626;2022-08-04T05:51:59;6.83;;;2.97;;
12871;SDS011;6504;53.766;9.626;2022-08-04T05:54:29;6.10;;;3.50;;
12871;SDS011;6504;53.766;9.626;2022-08-04T05:57:02;4.13;;;2.80;;
12871;SDS011;6504;53.766;9.626;2022-08-04T05:59:36;5.70;;;2.97;;
12871;SDS011;6504;53.766;9.626;2022-08-04T06:02:06;5.03;;;3.00;;
12871;SDS011;6504;53.766;9.626;2022-08-04T06:04:39;5.13;;;3.10;;
12871;SDS011;6504;53.766;9.626;2022-08-04T06:07:08;4.90;;;3.03;;
12871;SDS011;6504;53.766;9.626;2022-08-04T06:09:40;4.87;;;2.97;;
12871;SDS011;6504;53.766;9.626;2022-08-04T06:12:09;7.30;;;3.10;;
12871;SDS011;6504;53.766;9.626;2022-08-04T06:14:46;5.87;;;3.10;;
12871;SDS011;6504;53.766;9.626;2022-08-04T06:17:20;4.03;;;3.13;;
12871;SDS011;6504;53.766;9.626;2022-08-04T06:20:16;7.23;;;3.03;;
12871;SDS011;6504;53.766;9.626;2022-08-04T06:22:49;5.07;;;3.00;;
12871;SDS011;6504;53.766;9.626;2022-08-04T06:25:24;5.37;;;3.17;;
12871;SDS011;6504;53.766;9.626;2022-08-04T06:27:56;8.43;;;3.27;;
12871;SDS011;6504;53.766;9.626;2022-08-04T06:30:27;4.17;;;2.80;;
12871;SDS011;6504;53.766;9.626;2022-08-04T06:32:57;7.00;;;3.03;;
12871;SDS011;6504;53.766;9.626;2022-08-04T06:35:30;5.00;;;2.73;;
12871;SDS011;6504;53.766;9.626;2022-08-04T06:38:00;5.07;;;3.00;;
12871;SDS011;6504;53.766;9.626;2022-08-04T06:40:29;6.93;;;2.80;;
12871;SDS011;6504;53.766;9.626;2022-08-04T06:43:01;7.13;;;3.10;;
12871;SDS011;6504;53.766;9.626;2022-08-04T06:45:34;7.57;;;2.77;;
12871;SDS011;6504;53.766;9.626;2022-08-04T06:48:07;5.00;;;3.00;;
12871;SDS011;6504;53.766;9.626;2022-08-04T06:50:41;4.97;;;2.80;;
12871;SDS011;6504;53.766;9.626;2022-08-04T06:53:31;5.57;;;3.00;;
12871;SDS011;6504;53.766;9.626;2022-08-04T06:56:00;5.37;;;2.97;;
12871;SDS011;6504;53.766;9.626;2022-08-04T06:58:31;5.33;;;2.80;;
12871;SDS011;6504;53.766;9.626;2022-08-04T07:01:01;7.57;;;3.47;;
12871;SDS011;6504;53.766;9.626;2022-08-04T07:03:34;9.93;;;3.43;;
12871;SDS011;6504;53.766;9.626;2022-08-04T07:06:03;7.37;;;3.37;;
12871;SDS011;6504;53.766;9.626;2022-08-04T07:08:40;7.07;;;3.50;;
12871;SDS011;6504;53.766;9.626;2022-08-04T07:11:09;6.00;;;2.70;;
12871;SDS011;6504;53.766;9.626;2022-08-04T07:13:38;4.87;;;2.90;;
12871;SDS011;6504;53.766;9.626;2022-08-04T07:16:13;7.83;;;3.20;;
12871;SDS011;6504;53.766;9.626;2022-08-04T07:18:43;4.37;;;2.63;;
12871;SDS011;6504;53.766;9.626;2022-08-04T07:21:16;5.90;;;2.70;;
12871;SDS011;6504;53.766;9.626;2022-08-04T07:23:49;8.30;;;2.90;;
12871;SDS011;6504;53.766;9.626;2022-08-04T07:26:17;5.87;;;2.70;;
12871;SDS011;6504;53.766;9.626;2022-08-04T07:28:46;4.83;;;2.63;;
12871;SDS011;6504;53.766;9.626;2022-08-04T07:31:16;5.23;;;2.50;;
12871;SDS011;6504;53.766;9.626;2022-08-04T07:34:00;8.53;;;3.40;;
12871;SDS011;6504;53.766;9.626;2022-08-04T07:36:47;6.10;;;2.47;;
12871;SDS011;6504;53.766;9.626;2022-08-04T07:39:18;4.73;;;2.67;;
12871;SDS011;6504;53.766;9.626;2022-08-04T07:41:55;4.30;;;2.63;;
12871;SDS011;6504;53.766;9.626;2022-08-04T07:44:27;6.07;;;2.57;;
12871;SDS011;6504;53.766;9.626;2022-08-04T07:47:00;8.20;;;3.07;;
12871;SDS011;6504;53.766;9.626;2022-08-04T07:49:29;5.07;;;2.80;;
12871;SDS011;6504;53.766;9.626;2022-08-04T07:52:17;6.40;;;2.80;;
12871;SDS011;6504;53.766;9.626;2022-08-04T07:54:48;8.10;;;3.20;;
12871;SDS011;6504;53.766;9.626;2022-08-04T07:57:16;7.00;;;3.03;;
12871;SDS011;6504;53.766;9.626;2022-08-04T08:00:06;5.83;;;2.83;;
12871;SDS011;6504;53.766;9.626;2022-08-04T08:02:37;5.47;;;2.80;;
12871;SDS011;6504;53.766;9.626;2022-08-04T08:05:07;6.93;;;3.30;;
12871;SDS011;6504;53.766;9.626;2022-08-04T08:07:44;6.43;;;3.10;;
12871;SDS011;6504;53.766;9.626;2022-08-04T08:10:20;4.53;;;2.70;;
12871;SDS011;6504;53.766;9.626;2022-08-04T08:12:49;6.73;;;2.90;;
12871;SDS011;6504;53.766;9.626;2022-08-04T08:15:18;7.00;;;2.80;;
12871;SDS011;6504;53.766;9.626;2022-08-04T08:17:49;6.27;;;2.70;;
12871;SDS011;6504;53.766;9.626;2022-08-04T08:20:26;4.57;;;2.30;;
12871;SDS011;6504;53.766;9.626;2022-08-04T08:22:56;8.30;;;2.53;;
12871;SDS011;6504;53.766;9.626;2022-08-04T08:25:29;5.10;;;2.30;;
12871;SDS011;6504;53.766;9.626;2022-08-04T08:27:58;9.33;;;2.87;;
12871;SDS011;6504;53.766;9.626;2022-08-04T08:30:31;5.97;;;2.50;;
12871;SDS011;6504;53.766;9.626;2022-08-04T08:33:02;6.67;;;2.60;;
12871;SDS011;6504;53.766;9.626;2022-08-04T08:35:38;7.67;;;2.90;;
12871;SDS011;6504;53.766;9.626;2022-08-04T08:38:23;6.03;;;2.30;;
12871;SDS011;6504;53.766;9.626;2022-08-04T08:41:08;9.53;;;2.80;;
12871;SDS011;6504;53.766;9.626;2022-08-04T08:44:08;8.77;;;2.77;;
12871;SDS011;6504;53.766;9.626;2022-08-04T08:47:08;4.03;;;2.10;;
12871;SDS011;6504;53.766;9.626;2022-08-04T08:50:13;7.57;;;2.47;;
12871;SDS011;6504;53.766;9.626;2022-08-04T08:52:57;5.10;;;2.20;;
12871;SDS011;6504;53.766;9.626;2022-08-04T08:55:44;5.80;;;2.23;;
12871;SDS011;6504;53.766;9.626;2022-08-04T08:58:29;5.20;;;2.40;;
12871;SDS011;6504;53.766;9.626;2022-08-04T09:01:06;5.50;;;2.33;;
12871;SDS011;6504;53.766;9.626;2022-08-04T09:06:55;4.10;;;2.20;;
12871;SDS011;6504;53.766;9.626;2022-08-04T09:10:01;4.93;;;2.20;;
12871;SDS011;6504;53.766;9.626;2022-08-04T09:12:34;4.47;;;2.10;;
12871;SDS011;6504;53.766;9.626;2022-08-04T09:15:10;4.30;;;2.27;;
12871;SDS011;6504;53.766;9.626;2022-08-04T09:17:46;7.37;;;2.43;;
12871;SDS011;6504;53.766;9.626;2022-08-04T09:20:20;6.13;;;2.30;;
12871;SDS011;6504;53.766;9.626;2022-08-04T09:23:03;4.60;;;2.35;;
12871;SDS011;6504;53.766;9.626;2022-08-04T09:25:41;4.93;;;2.20;;
12871;SDS011;6504;53.766;9.626;2022-08-04T09:28:21;7.10;;;2.40;;
12871;SDS011;6504;53.766;9.626;2022-08-04T09:31:12;5.78;;;2.17;;
12871;SDS011;6504;53.766;9.626;2022-08-04T09:33:45;3.88;;;2.05;;
12871;SDS011;6504;53.766;9.626;2022-08-04T09:36:23;3.40;;;1.98;;
12871;SDS011;6504;53.766;9.626;2022-08-04T09:39:05;5.13;;;2.17;;
12871;SDS011;6504;53.766;9.626;2022-08-04T09:41:39;5.85;;;2.00;;
12871;SDS011;6504;53.766;9.626;2022-08-04T09:44:20;3.83;;;2.22;;
12871;SDS011;6504;53.766;9.626;2022-08-04T09:47:18;4.13;;;2.08;;
12871;SDS011;6504;53.766;9.626;2022-08-04T09:50:09;3.55;;;2.17;;
12871;SDS011;6504;53.766;9.626;2022-08-04T09:52:47;5.10;;;1.75;;
12871;SDS011;6504;53.766;9.626;2022-08-04T09:55:28;5.45;;;2.15;;
12871;SDS011;6504;53.766;9.626;2022-08-04T09:58:21;6.20;;;2.35;;
12871;SDS011;6504;53.766;9.626;2022-08-04T10:00:59;4.15;;;2.10;;
12871;SDS011;6504;53.766;9.626;2022-08-04T10:03:29;3.30;;;2.22;;
12871;SDS011;6504;53.766;9.626;2022-08-04T10:06:10;3.88;;;2.10;;
12871;SDS011;6504;53.766;9.626;2022-08-04T10:08:59;3.83;;;2.00;;
12871;SDS011;6504;53.766;9.626;2022-08-04T10:11:44;3.63;;;2.33;;
12871;SDS011;6504;53.766;9.626;2022-08-04T10:14:31;3.97;;;2.58;;
12871;SDS011;6504;53.766;9.626;2022-08-04T10:17:15;2.33;;;2.00;;
12871;SDS011;6504;53.766;9.626;2022-08-04T10:19:52;3.17;;;2.35;;
12871;SDS011;6504;53.766;9.626;2022-08-04T10:22:30;2.85;;;2.30;;
12871;SDS011;6504;53.766;9.626;2022-08-04T10:25:23;3.35;;;2.10;;
12871;SDS011;6504;53.766;9.626;2022-08-04T10:28:22;4.45;;;2.20;;
12871;SDS011;6504;53.766;9.626;2022-08-04T10:30:53;3.95;;;2.40;;
12871;SDS011;6504;53.766;9.626;2022-08-04T10:33:27;4.45;;;2.10;;
12871;SDS011;6504;53.766;9.626;2022-08-04T10:36:00;4.53;;;2.20;;
12871;SDS011;6504;53.766;9.626;2022-08-04T10:38:35;2.67;;;2.00;;
12871;SDS011;6504;53.766;9.626;2022-08-04T10:41:09;4.15;;;2.30;;
12871;SDS011;6504;53.766;9.626;2022-08-04T10:43:48;4.30;;;2.13;;
12871;SDS011;6504;53.766;9.626;2022-08-04T10:46:28;3.40;;;2.17;;
12871;SDS011;6504;53.766;9.626;2022-08-04T10:49:03;3.33;;;2.20;;
12871;SDS011;6504;53.766;9.626;2022-08-04T10:51:35;4.32;;;2.20;;
12871;SDS011;6504;53.766;9.626;2022-08-04T10:54:26;4.72;;;3.58;;
12871;SDS011;6504;53.766;9.626;2022-08-04T10:57:00;8.13;;;4.82;;
12871;SDS011;6504;53.766;9.626;2022-08-04T10:59:38;9.90;;;7.85;;
12871;SDS011;6504;53.766;9.626;2022-08-04T11:02:21;63.60;;;43.85;;
12871;SDS011;6504;53.766;9.626;2022-08-04T11:04:58;88.80;;;62.13;;
12871;SDS011;6504;53.766;9.626;2022-08-04T11:07:37;390.85;;;338.75;;
12871;SDS011;6504;53.766;9.626;2022-08-04T11:10:10;477.60;;;414.80;;
12871;SDS011;6504;53.766;9.626;2022-08-04T11:12:40;556.15;;;427.90;;
12871;SDS011;6504;53.766;9.626;2022-08-04T11:15:14;26.23;;;19.38;;
12871;SDS011;6504;53.766;9.626;2022-08-04T11:17:48;9.15;;;7.07;;
12871;SDS011;6504;53.766;9.626;2022-08-04T11:20:22;25.02;;;18.30;;
12871;SDS011;6504;53.766;9.626;2022-08-04T11:23:04;6.68;;;5.43;;
12871;SDS011;6504;53.766;9.626;2022-08-04T11:25:35;5.55;;;3.60;;
12871;SDS011;6504;53.766;9.626;2022-08-04T11:28:27;4.25;;;3.22;;
12871;SDS011;6504;53.766;9.626;2022-08-04T11:31:05;5.88;;;3.38;;
12871;SDS011;6504;53.766;9.626;2022-08-04T11:33:39;7.32;;;3.00;;
12871;SDS011;6504;53.766;9.626;2022-08-04T11:36:19;4.07;;;2.55;;
12871;SDS011;6504;53.766;9.626;2022-08-04T11:38:56;5.72;;;4.80;;
12871;SDS011;6504;53.766;9.626;2022-08-04T11:41:34;7.57;;;6.88;;
12871;SDS011;6504;53.766;9.626;2022-08-04T11:44:07;6.72;;;5.05;;
12871;SDS011;6504;53.766;9.626;2022-08-04T11:46:45;3.30;;;3.00;;
12871;SDS011;6504;53.766;9.626;2022-08-04T11:49:23;3.25;;;2.30;;
12871;SDS011;6504;53.766;9.626;2022-08-04T11:52:20;4.35;;;2.20;;
12871;SDS011;6504;53.766;9.626;2022-08-04T11:54:50;3.17;;;2.13;;
12871;SDS011;6504;53.766;9.626;2022-08-04T11:57:23;3.38;;;1.77;;
12871;SDS011;6504;53.766;9.626;2022-08-04T12:00:05;2.30;;;2.10;;
12871;SDS011;6504;53.766;9.626;2022-08-04T12:02:46;3.33;;;1.67;;
12871;SDS011;6504;53.766;9.626;2022-08-04T12:05:26;2.15;;;1.95;;
12871;SDS011;6504;53.766;9.626;2022-08-04T12:08:09;2.95;;;1.90;;
12871;SDS011;6504;53.766;9.626;2022-08-04T12:10:56;2.38;;;1.90;;
12871;SDS011;6504;53.766;9.626;2022-08-04T12:13:35;3.60;;;2.00;;
12871;SDS011;6504;53.766;9.626;2022-08-04T12:16:14;3.15;;;1.65;;
12871;SDS011;6504;53.766;9.626;2022-08-04T12:18:46;2.28;;;2.10;;
12871;SDS011;6504;53.766;9.626;2022-08-04T12:21:22;2.33;;;2.10;;
12871;SDS011;6504;53.766;9.626;2022-08-04T12:23:56;4.38;;;2.05;;
12871;SDS011;6504;53.766;9.626;2022-08-04T12:26:30;3.53;;;2.10;;
12871;SDS011;6504;53.766;9.626;2022-08-04T12:29:01;3.35;;;2.00;;
12871;SDS011;6504;53.766;9.626;2022-08-04T12:31:39;2.42;;;2.00;;
12871;SDS011;6504;53.766;9.626;2022-08-04T12:34:13;2.85;;;2.20;;
12871;SDS011;6504;53.766;9.626;2022-08-04T12:36:57;3.05;;;1.90;;
12871;SDS011;6504;53.766;9.626;2022-08-04T12:39:30;2.10;;;1.90;;
12871;SDS011;6504;53.766;9.626;2022-08-04T12:42:01;2.22;;;1.90;;
12871;SDS011;6504;53.766;9.626;2022-08-04T12:44:33;2.45;;;1.85;;
12871;SDS011;6504;53.766;9.626;2022-08-04T12:47:10;2.33;;;2.05;;
12871;SDS011;6504;53.766;9.626;2022-08-04T12:50:01;4.07;;;2.25;;
12871;SDS011;6504;53.766;9.626;2022-08-04T12:52:39;2.10;;;1.88;;
12871;SDS011;6504;53.766;9.626;2022-08-04T12:55:32;3.25;;;2.00;;
12871;SDS011;6504;53.766;9.626;2022-08-04T12:58:02;3.30;;;1.75;;
12871;SDS011;6504;53.766;9.626;2022-08-04T13:01:04;2.20;;;2.00;;
12871;SDS011;6504;53.766;9.626;2022-08-04T13:03:55;2.50;;;2.17;;
12871;SDS011;6504;53.766;9.626;2022-08-04T13:06:29;2.63;;;2.33;;
12871;SDS011;6504;53.766;9.626;2022-08-04T13:09:03;2.72;;;1.75;;
12871;SDS011;6504;53.766;9.626;2022-08-04T13:11:45;2.72;;;1.90;;
12871;SDS011;6504;53.766;9.626;2022-08-04T13:14:20;1.80;;;1.70;;
12871;SDS011;6504;53.766;9.626;2022-08-04T13:16:56;2.38;;;1.90;;
12871;SDS011;6504;53.766;9.626;2022-08-04T13:19:26;4.45;;;2.00;;
12871;SDS011;6504;53.766;9.626;2022-08-04T13:21:57;2.28;;;2.08;;
12871;SDS011;6504;53.766;9.626;2022-08-04T13:24:28;2.97;;;1.98;;
12871;SDS011;6504;53.766;9.626;2022-08-04T13:27:13;5.40;;;2.10;;
12871;SDS011;6504;53.766;9.626;2022-08-04T13:29:45;2.58;;;1.98;;
12871;SDS011;6504;53.766;9.626;2022-08-04T13:32:26;3.20;;;2.10;;
12871;SDS011;6504;53.766;9.626;2022-08-04T13:34:56;3.67;;;2.13;;
12871;SDS011;6504;53.766;9.626;2022-08-04T13:37:32;5.28;;;2.25;;
12871;SDS011;6504;53.766;9.626;2022-08-04T13:40:02;7.93;;;2.70;;
12871;SDS011;6504;53.766;9.626;2022-08-04T13:42:32;8.70;;;3.65;;
12871;SDS011;6504;53.766;9.626;2022-08-04T13:45:03;4.47;;;2.63;;
12871;SDS011;6504;53.766;9.626;2022-08-04T13:47:35;8.77;;;3.85;;
12871;SDS011;6504;53.766;9.626;2022-08-04T13:50:07;11.15;;;3.72;;
12871;SDS011;6504;53.766;9.626;2022-08-04T13:52:44;10.15;;;3.88;;
12871;SDS011;6504;53.766;9.626;2022-08-04T13:55:22;6.38;;;3.47;;
12871;SDS011;6504;53.766;9.626;2022-08-04T13:57:54;10.27;;;3.85;;
12871;SDS011;6504;53.766;9.626;2022-08-04T14:00:39;11.52;;;4.53;;
12871;SDS011;6504;53.766;9.626;2022-08-04T14:03:14;8.90;;;3.95;;
12871;SDS011;6504;53.766;9.626;2022-08-04T14:06:10;7.22;;;3.50;;
12871;SDS011;6504;53.766;9.626;2022-08-04T14:08:47;6.88;;;3.47;;
12871;SDS011;6504;53.766;9.626;2022-08-04T14:11:22;7.45;;;3.80;;
12871;SDS011;6504;53.766;9.626;2022-08-04T14:14:21;8.88;;;3.35;;
12871;SDS011;6504;53.766;9.626;2022-08-04T14:16:59;7.45;;;3.50;;
12871;SDS011;6504;53.766;9.626;2022-08-04T14:19:46;7.03;;;3.78;;
12871;SDS011;6504;53.766;9.626;2022-08-04T14:22:28;8.10;;;3.38;;
12871;SDS011;6504;53.766;9.626;2022-08-04T14:25:01;8.00;;;3.58;;
12871;SDS011;6504;53.766;9.626;2022-08-04T14:27:41;9.00;;;3.88;;
12871;SDS011;6504;53.766;9.626;2022-08-04T14:33:03;9.38;;;4.20;;
12871;SDS011;6504;53.766;9.626;2022-08-04T14:35:55;6.10;;;3.65;;
12871;SDS011;6504;53.766;9.626;2022-08-04T14:41:27;7.90;;;3.60;;
12871;SDS011;6504;53.766;9.626;2022-08-04T14:43:58;7.47;;;3.40;;
12871;SDS011;6504;53.766;9.626;2022-08-04T14:46:32;6.88;;;3.30;;
12871;SDS011;6504;53.766;9.626;2022-08-04T14:49:06;8.10;;;3.50;;
12871;SDS011;6504;53.766;9.626;2022-08-04T14:51:39;9.95;;;4.05;;
12871;SDS011;6504;53.766;9.626;2022-08-04T14:54:09;8.10;;;3.58;;
12871;SDS011;6504;53.766;9.626;2022-08-04T14:56:51;10.75;;;3.70;;
12871;SDS011;6504;53.766;9.626;2022-08-04T14:59:22;7.00;;;3.70;;
12871;SDS011;6504;53.766;9.626;2022-08-04T15:01:51;9.43;;;3.58;;
12871;SDS011;6504;53.766;9.626;2022-08-04T15:04:26;6.88;;;4.10;;
12871;SDS011;6504;53.766;9.626;2022-08-04T15:06:56;7.00;;;3.80;;
12871;SDS011;6504;53.766;9.626;2022-08-04T15:09:25;10.35;;;3.72;;
12871;SDS011;6504;53.766;9.626;2022-08-04T15:11:55;10.93;;;3.75;;
12871;SDS011;6504;53.766;9.626;2022-08-04T15:14:23;8.20;;;4.07;;
12871;SDS011;6504;53.766;9.626;2022-08-04T15:17:03;10.60;;;3.42;;
12871;SDS011;6504;53.766;9.626;2022-08-04T15:19:52;6.43;;;3.83;;
12871;SDS011;6504;53.766;9.626;2022-08-04T15:22:22;6.63;;;3.47;;
12871;SDS011;6504;53.766;9.626;2022-08-04T15:24:51;7.97;;;3.50;;
12871;SDS011;6504;53.766;9.626;2022-08-04T15:27:26;7.00;;;3.23;;
12871;SDS011;6504;53.766;9.626;2022-08-04T15:29:59;6.93;;;3.10;;
12871;SDS011;6504;53.766;9.626;2022-08-04T15:32:31;8.53;;;3.40;;
12871;SDS011;6504;53.766;9.626;2022-08-04T15:35:02;13.23;;;4.30;;
12871;SDS011;6504;53.766;9.626;2022-08-04T15:37:38;7.93;;;4.50;;
12871;SDS011;6504;53.766;9.626;2022-08-04T15:40:13;7.07;;;4.30;;
12871;SDS011;6504;53.766;9.626;2022-08-04T15:43:05;10.83;;;4.23;;
12871;SDS011;6504;53.766;9.626;2022-08-04T15:45:46;6.93;;;4.20;;
12871;SDS011;6504;53.766;9.626;2022-08-04T15:48:36;8.47;;;5.30;;
12871;SDS011;6504;53.766;9.626;2022-08-04T15:51:15;13.37;;;8.30;;
12871;SDS011;6504;53.766;9.626;2022-08-04T15:56:58;15.17;;;8.73;;
12871;SDS011;6504;53.766;9.626;2022-08-04T16:02:36;15.47;;;8.07;;
12871;SDS011;6504;53.766;9.626;2022-08-04T16:08:16;14.10;;;7.03;;
12871;SDS011;6504;53.766;9.626;2022-08-04T16:10:45;12.10;;;5.50;;
12871;SDS011;6504;53.766;9.626;2022-08-04T16:13:17;12.93;;;5.80;;
12871;SDS011;6504;53.766;9.626;2022-08-04T16:15:49;8.57;;;5.27;;
12871;SDS011;6504;53.766;9.626;2022-08-04T16:18:39;9.23;;;5.43;;
12871;SDS011;6504;53.766;9.626;2022-08-04T16:21:16;5.63;;;4.43;;
12871;SDS011;6504;53.766;9.626;2022-08-04T16:23:54;9.03;;;5.20;;
12871;SDS011;6504;53.766;9.626;2022-08-04T16:26:40;8.60;;;5.10;;
12871;SDS011;6504;53.766;9.626;2022-08-04T16:29:25;9.00;;;5.60;;
12871;SDS011;6504;53.766;9.626;2022-08-04T16:32:09;5.60;;;4.23;;
12871;SDS011;6504;53.766;9.626;2022-08-04T16:34:42;7.67;;;4.97;;
12871;SDS011;6504;53.766;9.626;2022-08-04T16:37:21;8.00;;;4.13;;
12871;SDS011;6504;53.766;9.626;2022-08-04T16:40:22;9.03;;;4.37;;
12871;SDS011;6504;53.766;9.626;2022-08-04T16:43:02;6.17;;;3.90;;
12871;SDS011;6504;53.766;9.626;2022-08-04T16:45:38;5.83;;;3.60;;
12871;SDS011;6504;53.766;9.626;2022-08-04T16:48:09;5.80;;;4.10;;
12871;SDS011;6504;53.766;9.626;2022-08-04T16:50:48;5.23;;;4.10;;
12871;SDS011;6504;53.766;9.626;2022-08-04T16:53:20;7.27;;;4.60;;
12871;SDS011;6504;53.766;9.626;2022-08-04T16:56:10;6.93;;;4.30;;
12871;SDS011;6504;53.766;9.626;2022-08-04T16:58:43;9.37;;;5.50;;
12871;SDS011;6504;53.766;9.626;2022-08-04T17:01:19;6.90;;;3.87;;
12871;SDS011;6504;53.766;9.626;2022-08-04T17:04:01;5.70;;;3.90;;
12871;SDS011;6504;53.766;9.626;2022-08-04T17:06:37;4.50;;;3.40;;
12871;SDS011;6504;53.766;9.626;2022-08-04T17:09:12;6.13;;;3.47;;
12871;SDS011;6504;53.766;9.626;2022-08-04T17:11:45;6.00;;;3.60;;
12871;SDS011;6504;53.766;9.626;2022-08-04T17:14:17;5.80;;;3.80;;
12871;SDS011;6504;53.766;9.626;2022-08-04T17:16:51;5.63;;;3.60;;